createdAt,value
2018-12-14T00:00:40.137Z,93229.99
2018-12-14T00:03:11.356Z,93237.09
2018-12-14T00:05:38.756Z,93231.22
2018-12-14T00:08:06.160Z,93235.78
2018-12-14T00:10:37.177Z,93234.07
2018-12-14T00:13:04.563Z,93239.96
2018-12-14T00:15:37.494Z,93238.66
2018-12-14T00:18:04.900Z,93234.90
2018-12-14T00:20:32.295Z,93235.70
2018-12-14T00:22:59.649Z,93237.41
2018-12-14T00:25:27.046Z,93232.41
2018-12-14T00:27:55.454Z,93243.74
2018-12-14T00:30:22.880Z,93236.64
2018-12-14T00:32:50.249Z,93237.08
2018-12-14T00:35:18.008Z,93238.77
2018-12-14T00:37:46.405Z,93237.89
2018-12-14T00:40:13.811Z,93240.78
2018-12-14T00:42:44.475Z,93236.22
2018-12-14T00:45:13.270Z,93242.44
2018-12-14T00:47:48.470Z,93247.04
2018-12-14T00:50:15.865Z,93244.92
2018-12-14T00:52:43.241Z,93245.34
2018-12-14T00:55:10.675Z,93244.88
2018-12-14T00:57:47.497Z,93245.75
2018-12-14T01:00:15.039Z,93241.58
2018-12-14T01:02:42.391Z,93254.13
2018-12-14T01:05:09.731Z,93258.31
2018-12-14T01:10:37.361Z,93257.90
2018-12-14T01:13:05.071Z,93261.72
2018-12-14T01:15:32.421Z,93255.00
2018-12-14T01:20:51.975Z,93259.27
2018-12-14T01:23:19.360Z,93262.56
2018-12-14T01:25:46.765Z,93265.05
2018-12-14T01:28:14.180Z,93264.62
2018-12-14T01:30:47.221Z,93264.60
2018-12-14T01:33:14.592Z,93267.91
2018-12-14T01:35:45.450Z,93264.92
2018-12-14T01:38:12.804Z,93269.09
2018-12-14T01:42:05.079Z,93267.42
2018-12-14T01:44:32.658Z,93261.61
2018-12-14T01:50:15.441Z,93265.87
2018-12-14T01:52:42.856Z,93264.64
2018-12-14T01:55:10.291Z,93263.42
2018-12-14T01:57:40.856Z,93264.60
2018-12-14T02:00:08.341Z,93273.77
2018-12-14T02:02:35.707Z,93275.45
2018-12-14T02:05:03.677Z,93277.08
2018-12-14T02:07:38.582Z,93267.86
2018-12-14T02:10:06.091Z,93271.60
2018-12-14T02:12:33.436Z,93267.02
2018-12-14T02:15:00.806Z,93277.94
2018-12-14T02:20:23.264Z,93264.60
2018-12-14T02:22:56.410Z,93267.98
2018-12-14T02:25:25.797Z,93267.53
2018-12-14T02:27:57.823Z,93258.69
2018-12-14T02:30:38.572Z,93269.15
2018-12-14T02:33:05.910Z,93261.20
2018-12-14T02:35:33.306Z,93265.41
2018-12-14T02:38:01.941Z,93264.14
2018-12-14T02:40:32.954Z,93272.52
2018-12-14T02:43:00.472Z,93266.27
2018-12-14T02:45:28.016Z,93265.47
2018-12-14T02:48:01.791Z,93266.75
2018-12-14T02:50:29.221Z,93275.53
2018-12-14T02:53:00.198Z,93279.23
2018-12-14T02:55:29.279Z,93273.37
2018-12-14T02:58:10.152Z,93277.17
2018-12-14T03:00:37.550Z,93276.77
2018-12-14T03:03:04.943Z,93276.35
2018-12-14T03:05:32.318Z,93268.80
2018-12-14T03:08:00.708Z,93263.73
2018-12-14T03:10:28.183Z,93265.78
2018-12-14T03:12:55.587Z,93262.82
2018-12-14T03:15:22.913Z,93268.22
2018-12-14T03:17:53.709Z,93269.88
2018-12-14T03:20:21.055Z,93272.38
2018-12-14T03:22:53.977Z,93275.30
2018-12-14T03:25:21.335Z,93275.30
2018-12-14T03:27:48.747Z,93273.22
2018-12-14T03:30:16.162Z,93274.93
2018-12-14T03:32:43.551Z,93267.86
2018-12-14T03:35:10.934Z,93265.69
2018-12-14T03:37:41.576Z,93269.41
2018-12-14T03:40:08.959Z,93274.89
2018-12-14T03:42:36.411Z,93279.49
2018-12-14T03:45:07.469Z,93274.89
2018-12-14T03:47:40.660Z,93273.62
2018-12-14T03:50:08.116Z,93270.66
2018-12-14T03:52:39.127Z,93272.78
2018-12-14T03:55:06.509Z,93281.93
2018-12-14T03:57:34.978Z,93282.44
2018-12-14T04:00:05.238Z,93275.72
2018-12-14T04:02:32.733Z,93280.33
2018-12-14T04:05:00.139Z,93283.70
2018-12-14T04:07:27.518Z,93290.84
2018-12-14T04:09:54.867Z,93291.70
2018-12-14T04:12:22.239Z,93290.52
2018-12-14T04:14:49.698Z,93284.66
2018-12-14T04:17:17.049Z,93282.95
2018-12-14T04:19:44.449Z,93286.73
2018-12-14T04:22:11.809Z,93291.30
2018-12-14T04:24:39.212Z,93284.63
2018-12-14T04:27:06.584Z,93284.65
2018-12-14T04:29:33.950Z,93279.67
2018-12-14T04:32:01.289Z,93280.09
2018-12-14T04:34:28.805Z,93284.64
2018-12-14T04:36:56.228Z,93280.81
2018-12-14T04:39:23.582Z,93286.23
2018-12-14T04:41:51.018Z,93284.98
2018-12-14T04:44:18.382Z,93285.01
2018-12-14T04:49:54.537Z,93285.34
2018-12-14T04:52:21.908Z,93293.78
2018-12-14T04:54:49.254Z,93290.01
2018-12-14T04:57:18.656Z,93285.02
2018-12-14T04:59:49.314Z,93288.76
2018-12-14T05:02:16.648Z,93290.47
2018-12-14T05:04:44.062Z,93289.66
2018-12-14T05:07:12.461Z,93291.72
2018-12-14T05:09:39.855Z,93296.73
2018-12-14T05:12:07.390Z,93294.63
2018-12-14T05:14:36.077Z,93285.42
2018-12-14T05:17:07.218Z,93292.58
2018-12-14T05:19:34.586Z,93297.56
2018-12-14T05:22:02.228Z,93301.75
2018-12-14T05:24:29.618Z,93307.59
2018-12-14T05:29:55.752Z,93303.75
2018-12-14T05:32:27.063Z,93313.82
2018-12-14T05:34:58.232Z,93311.36
2018-12-14T05:37:44.443Z,93311.81
2018-12-14T05:40:11.829Z,93313.05
2018-12-14T05:42:42.918Z,93307.15
2018-12-14T05:45:10.298Z,93310.47
2018-12-14T05:50:53.519Z,93313.00
2018-12-14T05:53:20.907Z,93316.33
2018-12-14T05:55:52.087Z,93311.70
2018-12-14T05:58:19.475Z,93311.72
2018-12-14T06:00:46.873Z,93312.49
2018-12-14T06:03:17.656Z,93313.36
2018-12-14T06:05:46.603Z,93320.88
2018-12-14T06:08:13.992Z,93317.12
2018-12-14T06:10:41.359Z,93320.44
2018-12-14T06:13:09.241Z,93318.77
2018-12-14T06:15:36.835Z,93327.92
2018-12-14T06:18:09.871Z,93329.25
2018-12-14T06:20:37.213Z,93328.39
2018-12-14T06:23:10.050Z,93333.41
2018-12-14T06:25:37.391Z,93332.18
2018-12-14T06:28:04.804Z,93329.66
2018-12-14T06:30:32.184Z,93338.06
2018-12-14T06:32:59.581Z,93340.55
2018-12-14T06:35:27.002Z,93340.94
2018-12-14T06:37:54.363Z,93343.86
2018-12-14T06:40:21.812Z,93351.84
2018-12-14T06:42:49.163Z,93359.75
2018-12-14T06:45:16.727Z,93353.09
2018-12-14T06:47:44.104Z,93360.59
2018-12-14T06:50:11.535Z,93360.98
2018-12-14T06:52:38.979Z,93361.44
2018-12-14T06:55:06.524Z,93360.98
2018-12-14T06:57:38.272Z,93358.87
2018-12-14T07:00:06.957Z,93359.18
2018-12-14T07:02:34.474Z,93361.69
2018-12-14T07:05:01.879Z,93363.81
2018-12-14T07:07:36.102Z,93365.17
2018-12-14T07:10:03.669Z,93370.30
2018-12-14T07:12:31.018Z,93373.27
2018-12-14T07:14:58.427Z,93382.03
2018-12-14T07:17:31.377Z,93375.20
2018-12-14T07:19:58.749Z,93381.02
2018-12-14T07:22:26.183Z,93392.63
2018-12-14T07:24:53.609Z,93394.30
2018-12-14T07:27:25.722Z,93390.16
2018-12-14T07:29:53.125Z,93399.38
2018-12-14T07:32:20.562Z,93396.96
2018-12-14T07:34:47.920Z,93400.75
2018-12-14T07:37:19.664Z,93398.63
2018-12-14T07:39:47.029Z,93401.34
2018-12-14T07:42:14.480Z,93401.83
2018-12-14T07:44:45.675Z,93396.42
2018-12-14T07:47:16.535Z,93397.17
2018-12-14T07:49:47.399Z,93408.92
2018-12-14T07:52:14.880Z,93409.78
2018-12-14T07:54:42.353Z,93408.58
2018-12-14T07:57:11.802Z,93407.39
2018-12-14T07:59:42.399Z,93411.09
2018-12-14T08:02:09.799Z,93411.48
2018-12-14T08:04:40.441Z,93413.16
2018-12-14T08:07:13.529Z,93415.09
2018-12-14T08:09:40.942Z,93422.89
2018-12-14T08:12:08.299Z,93422.80
2018-12-14T08:14:35.727Z,93431.17
2018-12-14T08:17:04.150Z,93427.79
2018-12-14T08:19:34.743Z,93429.29
2018-12-14T08:22:02.136Z,93427.58
2018-12-14T08:24:32.701Z,93427.58
2018-12-14T08:27:00.084Z,93430.90
2018-12-14T08:29:27.439Z,93432.94
2018-12-14T08:31:54.805Z,93438.10
2018-12-14T08:34:25.795Z,93435.59
2018-12-14T08:36:53.125Z,93433.14
2018-12-14T08:39:25.990Z,93425.31
2018-12-14T08:41:53.399Z,93429.58
2018-12-14T08:44:20.775Z,93430.86
2018-12-14T08:46:49.188Z,93436.72
2018-12-14T08:49:20.094Z,93440.02
2018-12-14T08:51:49.150Z,93444.67
2018-12-14T08:54:16.561Z,93443.05
2018-12-14T08:56:44.960Z,93448.17
2018-12-14T08:59:12.393Z,93446.86
2018-12-14T09:01:39.725Z,93453.98
2018-12-14T09:04:07.160Z,93456.50
2018-12-14T09:06:34.525Z,93459.80
2018-12-14T09:09:01.947Z,93462.25
2018-12-14T09:11:29.313Z,93472.72
2018-12-14T09:14:02.302Z,93478.95
2018-12-14T09:16:33.891Z,93486.88
2018-12-14T09:19:01.577Z,93488.66
2018-12-14T09:21:30.775Z,93487.11
2018-12-14T09:23:58.146Z,93491.70
2018-12-14T09:26:31.226Z,93498.77
2018-12-14T09:28:58.861Z,93499.07
2018-12-14T09:31:30.353Z,93496.89
2018-12-14T09:34:01.190Z,93494.70
2018-12-14T09:36:28.602Z,93500.69
2018-12-14T09:38:55.994Z,93502.27
2018-12-14T09:41:23.395Z,93498.12
2018-12-14T09:43:54.310Z,93493.16
2018-12-14T09:46:20.262Z,93495.19
2018-12-14T09:48:47.704Z,93496.89
2018-12-14T09:51:20.590Z,93498.05
2018-12-14T09:53:53.628Z,93500.50
2018-12-14T09:56:24.150Z,93492.59
2018-12-14T09:58:55.363Z,93492.67
2018-12-14T10:01:22.757Z,93492.34
2018-12-14T10:03:50.396Z,93492.48
2018-12-14T10:06:17.816Z,93492.95
2018-12-14T10:08:48.944Z,93493.42
2018-12-14T10:11:16.753Z,93489.23
2018-12-14T10:13:48.104Z,93490.44
2018-12-14T10:16:17.054Z,93499.70
2018-12-14T10:18:46.250Z,93494.18
2018-12-14T10:21:13.634Z,93494.28
2018-12-14T10:23:41.052Z,93492.51
2018-12-14T10:26:08.430Z,93500.02
2018-12-14T10:28:35.825Z,93510.53
2018-12-14T10:31:06.545Z,93511.45
2018-12-14T10:33:33.944Z,93510.22
2018-12-14T10:36:03.152Z,93511.01
2018-12-14T10:38:34.105Z,93515.64
2018-12-14T10:41:01.466Z,93521.58
2018-12-14T10:43:28.879Z,93522.09
2018-12-14T10:45:59.890Z,93521.28
2018-12-14T10:48:31.074Z,93519.23
2018-12-14T10:50:58.464Z,93524.23
2018-12-14T10:53:31.463Z,93522.56
2018-12-14T10:56:04.440Z,93529.69
2018-12-14T10:58:33.919Z,93526.72
2018-12-14T11:01:14.244Z,93530.95
2018-12-14T11:03:40.010Z,93529.35
2018-12-14T11:06:25.908Z,93530.22
2018-12-14T11:08:53.331Z,93528.13
2018-12-14T11:11:26.343Z,93531.11
2018-12-14T11:13:56.844Z,93524.50
2018-12-14T11:16:26.246Z,93524.06
2018-12-14T11:18:53.634Z,93529.08
2018-12-14T11:21:21.054Z,93524.02
2018-12-14T11:23:48.460Z,93525.31
2018-12-14T11:26:38.305Z,93521.92
2018-12-14T11:29:05.688Z,93516.81
2018-12-14T11:31:36.911Z,93513.82
2018-12-14T11:34:04.329Z,93513.34
2018-12-14T11:36:34.909Z,93518.30
2018-12-14T11:39:02.462Z,93509.50
2018-12-14T11:41:33.909Z,93508.67
2018-12-14T11:44:04.784Z,93505.70
2018-12-14T11:46:35.775Z,93501.97
2018-12-14T11:49:04.934Z,93503.27
2018-12-14T11:51:32.390Z,93505.80
2018-12-14T11:54:03.317Z,93499.16
2018-12-14T11:56:36.750Z,93498.67
2018-12-14T11:59:07.415Z,93498.30
2018-12-14T12:01:34.834Z,93490.32
2018-12-14T12:04:05.630Z,93490.73
2018-12-14T12:06:36.659Z,93499.11
2018-12-14T12:09:10.424Z,93502.00
2018-12-14T12:11:41.351Z,93501.14
2018-12-14T12:14:08.777Z,93502.31
2018-12-14T12:16:37.719Z,93496.39
2018-12-14T12:19:08.604Z,93498.52
2018-12-14T12:21:36.260Z,93500.59
2018-12-14T12:24:09.150Z,93498.98
2018-12-14T12:26:39.719Z,93502.43
2018-12-14T12:29:10.784Z,93496.91
2018-12-14T12:31:44.175Z,93497.58
2018-12-14T12:34:11.639Z,93505.46
2018-12-14T12:36:44.697Z,93496.22
2018-12-14T12:39:15.453Z,93504.52
2018-12-14T12:41:46.402Z,93501.58
2018-12-14T12:44:17.420Z,93500.04
2018-12-14T12:46:48.223Z,93495.54
2018-12-14T12:49:15.659Z,93497.70
2018-12-14T12:51:46.794Z,93502.83
2018-12-14T12:54:14.231Z,93508.72
2018-12-14T12:56:41.739Z,93503.22
2018-12-14T12:59:12.546Z,93504.42
2018-12-14T13:01:39.942Z,93510.34
2018-12-14T13:04:11.224Z,93509.48
2018-12-14T13:06:42.316Z,93509.88
2018-12-14T13:09:09.729Z,93505.31
2018-12-14T13:11:42.844Z,93507.80
2018-12-14T13:14:13.592Z,93505.32
2018-12-14T13:16:49.678Z,93504.30
2018-12-14T13:19:20.301Z,93505.91
2018-12-14T13:21:53.550Z,93509.95
2018-12-14T13:24:20.896Z,93515.81
2018-12-14T13:26:48.295Z,93511.54
2018-12-14T13:29:15.711Z,93515.63
2018-12-14T13:31:43.134Z,93519.55
2018-12-14T13:34:10.539Z,93519.55
2018-12-14T13:36:41.295Z,93519.55
2018-12-14T13:39:08.703Z,93525.73
2018-12-14T13:41:36.155Z,93526.12
2018-12-14T13:44:06.878Z,93524.52
2018-12-14T13:46:37.748Z,93526.70
2018-12-14T13:49:05.169Z,93530.11
2018-12-14T13:51:36.341Z,93535.13
2018-12-14T13:54:07.222Z,93535.94
2018-12-14T13:56:36.624Z,93533.72
2018-12-14T13:59:07.971Z,93539.07
2018-12-14T14:01:37.119Z,93540.16
2018-12-14T14:04:07.991Z,93545.59
2018-12-14T14:06:35.346Z,93540.47
2018-12-14T14:09:06.119Z,93541.23
2018-12-14T14:11:39.524Z,93554.72
2018-12-14T14:14:10.010Z,93558.98
2018-12-14T14:16:40.813Z,93556.12
2018-12-14T14:19:14.195Z,93563.27
2018-12-14T14:21:45.536Z,93561.98
2018-12-14T14:24:16.619Z,93566.97
2018-12-14T14:26:47.462Z,93570.77
2018-12-14T14:29:16.588Z,93577.05
2018-12-14T14:31:43.971Z,93585.59
2018-12-14T14:34:14.708Z,93590.55
2018-12-14T14:36:45.775Z,93594.77
2018-12-14T14:39:13.186Z,93586.08
2018-12-14T14:41:40.596Z,93597.73
2018-12-14T14:44:12.104Z,93591.00
2018-12-14T14:46:42.951Z,93594.73
2018-12-14T14:49:14.266Z,93604.00
2018-12-14T14:51:45.674Z,93606.02
2018-12-14T14:54:14.701Z,93609.80
2018-12-14T14:56:42.100Z,93605.53
2018-12-14T14:59:12.821Z,93609.11
2018-12-14T15:01:43.721Z,93617.73
2018-12-14T15:04:15.878Z,93617.81
2018-12-14T15:06:46.802Z,93616.11
2018-12-14T15:09:18.834Z,93622.80
2018-12-14T15:11:49.739Z,93626.52
2018-12-14T15:14:20.825Z,93634.34
2018-12-14T15:16:51.754Z,93635.13
2018-12-14T15:19:22.846Z,93632.53
2018-12-14T15:21:54.096Z,93636.63
2018-12-14T15:24:24.966Z,93641.22
2018-12-14T15:26:52.391Z,93640.25
2018-12-14T15:29:23.334Z,93636.11
2018-12-14T15:31:54.420Z,93640.30
2018-12-14T15:34:21.906Z,93651.41
2018-12-14T15:36:49.310Z,93648.89
2018-12-14T15:39:20.015Z,93647.30
2018-12-14T15:41:47.600Z,93644.61
2018-12-14T15:44:20.423Z,93645.91
2018-12-14T15:46:51.764Z,93655.01
2018-12-14T15:49:23.000Z,93658.34
2018-12-14T15:51:50.384Z,93668.42
2018-12-14T15:54:19.686Z,93660.70
2018-12-14T15:56:50.516Z,93667.95
2018-12-14T15:59:21.078Z,93670.00
2018-12-14T16:01:48.679Z,93674.64
2018-12-14T16:04:16.113Z,93673.54
2018-12-14T16:06:43.482Z,93676.98
2018-12-14T16:09:14.789Z,93678.02
2018-12-14T16:11:45.865Z,93683.18
2018-12-14T16:14:19.392Z,93684.84
2018-12-14T16:16:46.765Z,93678.20
2018-12-14T16:19:17.822Z,93685.21
2018-12-14T16:21:45.366Z,93685.17
2018-12-14T16:24:16.375Z,93681.03
2018-12-14T16:26:45.356Z,93687.07
2018-12-14T16:29:12.775Z,93681.48
2018-12-14T16:31:40.161Z,93677.67
2018-12-14T16:34:10.708Z,93687.28
2018-12-14T16:36:41.710Z,93678.88
2018-12-14T16:39:15.391Z,93689.48
2018-12-14T16:41:44.844Z,93692.30
2018-12-14T16:44:15.704Z,93696.91
2018-12-14T16:46:46.629Z,93698.56
2018-12-14T16:49:14.181Z,93700.30
2018-12-14T16:51:43.555Z,93705.72
2018-12-14T16:54:14.682Z,93709.48
2018-12-14T16:56:45.747Z,93713.39
2018-12-14T16:59:13.113Z,93709.69
2018-12-14T17:01:40.562Z,93713.56
2018-12-14T17:04:10.022Z,93717.05
2018-12-14T17:06:41.173Z,93719.37
2018-12-14T17:09:10.401Z,93721.33
2018-12-14T17:11:41.616Z,93718.71
2018-12-14T17:14:09.031Z,93725.22
2018-12-14T17:16:39.644Z,93734.03
2018-12-14T17:19:10.678Z,93738.06
2018-12-14T17:21:41.852Z,93747.09
2018-12-14T17:24:09.251Z,93748.35
2018-12-14T17:26:37.791Z,93751.18
2018-12-14T17:29:06.881Z,93750.39
2018-12-14T17:31:34.316Z,93757.08
2018-12-14T17:35:26.203Z,93755.23
2018-12-14T17:37:57.192Z,93763.12
2018-12-14T17:40:27.722Z,93767.48
2018-12-14T17:42:58.582Z,93765.83
2018-12-14T17:45:25.937Z,93765.47
2018-12-14T17:47:56.587Z,93766.01
2018-12-14T17:50:23.979Z,93766.23
2018-12-14T17:52:54.542Z,93765.08
2018-12-14T17:55:25.688Z,93770.56
2018-12-14T17:57:53.199Z,93774.37
2018-12-14T18:00:23.808Z,93771.04
2018-12-14T18:02:51.212Z,93774.90
2018-12-14T18:05:21.802Z,93774.43
2018-12-14T18:07:50.254Z,93778.92
2018-12-14T18:10:17.623Z,93778.88
2018-12-14T18:12:50.898Z,93784.23
2018-12-14T18:15:18.289Z,93786.74
2018-12-14T18:17:49.631Z,93791.65
2018-12-14T18:20:23.130Z,93789.58
2018-12-14T18:22:54.359Z,93793.13
2018-12-14T18:25:23.249Z,93796.13
2018-12-14T18:27:50.647Z,93797.63
2018-12-14T18:30:23.578Z,93801.48
2018-12-14T18:32:54.183Z,93803.70
2018-12-14T18:35:21.722Z,93803.80
2018-12-14T18:37:54.238Z,93800.41
2018-12-14T18:40:21.671Z,93802.08
2018-12-14T18:42:49.113Z,93798.73
2018-12-14T18:45:16.524Z,93804.06
2018-12-14T18:47:49.179Z,93805.15
2018-12-14T18:50:20.129Z,93808.12
2018-12-14T18:52:51.133Z,93812.42
2018-12-14T18:55:22.415Z,93814.68
2018-12-14T18:57:55.807Z,93819.69
2018-12-14T19:00:23.271Z,93821.67
2018-12-14T19:02:50.669Z,93822.45
2018-12-14T19:05:21.358Z,93817.92
2018-12-14T19:07:53.428Z,93815.28
2018-12-14T19:10:20.823Z,93819.84
2018-12-14T19:12:53.738Z,93824.12
2018-12-14T19:15:24.570Z,93829.55
2018-12-14T19:17:55.405Z,93826.33
2018-12-14T19:20:29.085Z,93828.88
2018-12-14T19:22:56.458Z,93830.09
2018-12-14T19:25:23.877Z,93833.80
2018-12-14T19:27:52.398Z,93841.80
2018-12-14T19:30:19.859Z,93836.25
2018-12-14T19:32:50.558Z,93846.41
2018-12-14T19:35:17.962Z,93847.47
2018-12-14T19:40:40.840Z,93847.72
2018-12-14T19:45:41.109Z,93852.70
2018-12-14T19:48:08.549Z,93853.33
2018-12-14T19:50:39.273Z,93861.33
2018-12-14T19:53:06.717Z,93867.59
2018-12-14T19:55:34.144Z,93866.63
2018-12-14T19:58:03.079Z,93870.34
2018-12-14T20:00:44.537Z,93863.78
2018-12-14T20:03:12.748Z,93869.09
2018-12-14T20:05:43.594Z,93871.16
2018-12-14T20:08:11.298Z,93871.72
2018-12-14T20:10:38.790Z,93872.55
2018-12-14T20:13:10.169Z,93872.91
2018-12-14T20:15:41.125Z,93875.75
2018-12-14T20:18:08.538Z,93879.10
2018-12-14T20:20:35.948Z,93883.47
2018-12-14T20:23:03.823Z,93879.17
2018-12-14T20:25:34.692Z,93874.52
2018-12-14T20:28:06.091Z,93878.89
2018-12-14T20:30:33.943Z,93875.84
2018-12-14T20:33:05.500Z,93877.63
2018-12-14T20:35:33.567Z,93886.50
2018-12-14T20:38:04.647Z,93882.19
2018-12-14T20:40:36.147Z,93880.03
2018-12-14T20:43:05.317Z,93887.97
2018-12-14T20:45:34.534Z,93887.20
2018-12-14T20:48:05.767Z,93882.25
2018-12-14T20:50:33.378Z,93888.18
2018-12-14T20:53:06.165Z,93887.45
2018-12-14T20:55:36.828Z,93888.52
2018-12-14T20:58:07.723Z,93891.92
2018-12-14T21:00:38.524Z,93891.08
2018-12-14T21:03:07.677Z,93889.37
2018-12-14T21:05:36.567Z,93890.61
2018-12-14T21:08:04.032Z,93891.27
2018-12-14T21:10:31.556Z,93895.95
2018-12-14T21:12:58.969Z,93893.21
2018-12-14T21:15:32.052Z,93891.76
2018-12-14T21:18:00.064Z,93895.95
2018-12-14T21:20:27.757Z,93893.85
2018-12-14T21:22:57.035Z,93893.09
2018-12-14T21:25:25.024Z,93900.80
2018-12-14T21:27:54.534Z,93892.31
2018-12-14T21:30:28.348Z,93896.85
2018-12-14T21:32:55.932Z,93891.05
2018-12-14T21:35:23.603Z,93894.57
2018-12-14T21:37:55.788Z,93886.70
2018-12-14T21:40:26.449Z,93890.00
2018-12-14T21:42:57.599Z,93892.06
2018-12-14T21:45:25.081Z,93884.59
2018-12-14T21:47:52.622Z,93881.09
2018-12-14T21:50:23.740Z,93882.38
2018-12-14T21:52:51.883Z,93883.30
2018-12-14T21:55:19.910Z,93882.41
2018-12-14T21:57:47.448Z,93879.20
2018-12-14T22:00:20.745Z,93882.61
2018-12-14T22:02:48.498Z,93881.83
2018-12-14T22:05:17.511Z,93878.16
2018-12-14T22:07:48.900Z,93874.80
2018-12-14T22:10:16.469Z,93876.12
2018-12-14T22:12:44.209Z,93875.70
2018-12-14T22:15:11.879Z,93870.55
2018-12-14T22:17:41.290Z,93866.38
2018-12-14T22:20:12.453Z,93865.47
2018-12-14T22:22:40.122Z,93868.40
2018-12-14T22:25:08.087Z,93871.45
2018-12-14T22:27:39.219Z,93868.89
2018-12-14T22:30:08.627Z,93864.13
2018-12-14T22:32:36.377Z,93865.44
2018-12-14T22:35:04.455Z,93868.72
2018-12-14T22:37:35.647Z,93865.33
2018-12-14T22:40:03.785Z,93862.59
2018-12-14T22:42:31.479Z,93860.42
2018-12-14T22:45:01.229Z,93859.88
2018-12-14T22:47:31.822Z,93865.01
2018-12-14T22:50:05.364Z,93867.59
2018-12-14T22:52:36.013Z,93866.88
2018-12-14T22:55:04.067Z,93871.00
2018-12-14T22:57:35.105Z,93869.26
2018-12-14T23:00:03.763Z,93870.25
2018-12-14T23:02:35.032Z,93870.25
2018-12-14T23:05:05.838Z,93876.47
2018-12-14T23:07:37.104Z,93875.98
2018-12-14T23:10:10.193Z,93872.34
2018-12-14T23:12:41.982Z,93869.00
2018-12-14T23:15:09.477Z,93871.93
2018-12-14T23:17:37.190Z,93868.70
2018-12-14T23:20:06.266Z,93860.12
2018-12-14T23:22:33.605Z,93860.94
2018-12-14T23:25:01.037Z,93868.95
2018-12-14T23:27:32.933Z,93875.52
2018-12-14T23:30:00.634Z,93870.69
2018-12-14T23:32:28.083Z,93873.44
2018-12-14T23:34:59.099Z,93876.85
2018-12-14T23:37:28.466Z,93879.30
2018-12-14T23:39:59.357Z,93886.13
2018-12-14T23:42:26.767Z,93888.58
2018-12-14T23:44:59.852Z,93894.00
2018-12-14T23:47:28.620Z,93895.91
2018-12-14T23:49:56.008Z,93895.34
2018-12-14T23:52:23.499Z,93894.05
2018-12-14T23:54:50.864Z,93901.13
2018-12-14T23:57:25.467Z,93894.39
2018-12-14T23:59:59.122Z,93892.63
